METAR Data
IDs: Format: Raw Decoded Include TAF

Data at: 2223 UTC 19 Jan 2019

PADE 192153Z AUTO 28010KT 10SM OVC010 M15/ A3004 RMK AO2 UPB02E28SNE02B03E07 SLP171 P0000 T1150 TSNO $
PADE 192143Z AUTO 27005KT 10SM OVC010 M16/ A3004 RMK AO2 UPB02E28SNE02B03E07 P0000 T1156 TSNO $
PADE 192053Z AUTO 26004KT 7SM -SN OVC009 M16/ A3003 RMK AO2 UPE50SNB50 SLP170 P0000 60000 T1156 53000 TSNO $
PADE 192009Z AUTO 30008KT 10SM UP OVC009 M16/ A3003 RMK AO2 P0000 T1156 TSNO $
PADE 191953Z AUTO 29005KT 10SM UP OVC010 M16/ A3003 RMK AO2 UPB03SNB07E17 SLP169 P0000 T1156 TSNO $
PADE 191906Z AUTO 19006KT 9SM UP OVC006 M17/ A3002 RMK AO2 UPB03 P0000 T1172 TSNO $
PADE 191853Z AUTO 20005KT 10SM OVC005 M17/ A3003 RMK AO2 SLP169 T1172 TSNO $
PADE 191832Z AUTO 21006KT 10SM OVC004 M18/ A3003 RMK AO2 T1178 TSNO $
PADE 191802Z AUTO 21005KT 10SM OVC005 M18/ A3003 RMK AO2 T1178 TSNO $
PADE 191753Z AUTO 20006KT 10SM OVC006 M18/ A3003 RMK AO2 SLP169 T1183 11183 21244 58003 TSNO $
PADE 191653Z AUTO 21004KT 10SM BKN008 OVC012 M19/ A3003 RMK AO2 SLP170 T1189 TSNO $
PADE 191633Z AUTO 21004KT 10SM BKN009 OVC013 M19/ A3003 RMK AO2 T1189 TSNO $
PADE 191553Z AUTO 00000KT 10SM SCT009 OVC012 M19/ A3003 RMK AO2 SLP171 T1194 TSNO $
PADE 191546Z AUTO 23003KT 10SM SCT009 OVC014 M19/ A3003 RMK AO2 T1194 TSNO $
PADE 191536Z AUTO 00000KT 10SM BKN009 OVC014 M19/ A3003 RMK AO2 T1194 TSNO $
PADE 191522Z AUTO 00000KT 10SM SCT009 OVC015 M20/ A3003 RMK AO2 T1200 TSNO $
PADE 191453Z AUTO 00000KT 10SM BKN010 OVC016 M20/ A3004 RMK AO2 SLP172 T1200 56007 TSNO $
PADE 191336Z AUTO 00000KT 10SM OVC015 M23/M24 A3004 RMK AO2 T12281244 TSNO $
PADE 191253Z AUTO 21003KT 10SM OVC013 M24/M26 A3005 RMK AO2 SLP177 T12391256 TSNO $
PADE 191232Z AUTO 00000KT 10SM BKN012 M24/M27 A3006 RMK AO2 T12441267 TSNO $
PADE 191153Z AUTO 00000KT 10SM CLR M24/M26 A3006 RMK AO2 SLP179 I6000 T12441261 11178 21250 58006 TSNO $
PADE 191021Z AUTO 21003KT 10SM SCT002 M23/M25 A3007 RMK AO2 T12331250 TSNO $
PADE 190942Z AUTO 22005KT 10SM OVC001 M22/M23 A3007 RMK AO2 I1000 T12171233 TSNO $
PADE 190935Z AUTO 21006KT 2 1/2SM BR OVC001 M22/M24 A3007 RMK AO2 I1000 T12221239 TSNO $
PADE 190853Z AUTO 00000KT 3/4SM BR VV001 M21/M22 A3008 RMK AO2 SLP185 I1000 I3000 T12061217 410561206 56004 TSNO $
PADE 190849Z AUTO 00000KT 1 1/2SM BR OVC002 M21/M22 A3007 RMK AO2 I1000 TSNO $
PADE 190753Z AUTO 18003KT 9SM OVC003 M18/M19 A3008 RMK AO2 SLP186 I1000 T11831194 TSNO $
PADE 190653Z AUTO 15005KT 10SM OVC004 M18/M19 A3008 RMK AO2 SLP186 T11781189 TSNO $
PADE 190633Z AUTO 19003KT 10SM OVC005 M18/M20 A3008 RMK AO2 T11831200 TSNO $
PADE 190553Z AUTO 20004KT 10SM OVC006 M18/M20 A3009 RMK AO2 SLP189 T11831200 11144 21189 56005 TSNO $
PADE 190453Z AUTO 20006KT 10SM OVC008 M18/M20 A3009 RMK AO2 SLP190 T11831200 TSNO $
PADE 190425Z AUTO 20006KT 10SM OVC009 M18/M20 A3009 RMK AO2 T11831200 TSNO $
PADE 190353Z AUTO 20007KT 10SM OVC010 M18/M20 A3009 RMK AO2 SLP192 T11781200 TSNO $
PADE 190253Z AUTO 21005KT 10SM OVC011 M17/M18 A3010 RMK AO2 SLP195 T11671178 52001 TSNO $
PADE 190153Z AUTO 24010KT 10SM OVC011 M16/M17 A3010 RMK AO2 SLP195 T11561172 TSNO $
PADE 190053Z AUTO 25011KT 10SM OVC012 M15/M17 A3010 RMK AO2 SLP194 T11501172 TSNO $
PADE 182253Z AUTO 26011KT 10SM OVC011 M14/M17 A3010 RMK AO2 SLP192 T11441167 TSNO $
PADE 182153Z AUTO 26013KT 10SM OVC011 M14/M17 A3009 RMK AO2 UPB32E42 SLP191 P0000 T11441167 TSNO $
PADE 182053Z AUTO 25014KT 10SM OVC012 M14/M17 A3008 RMK AO2 SLP188 T11441167 51016 TSNO $
PADE 182009Z AUTO 26010KT 10SM OVC014 M15/M17 A3008 RMK AO2 T11501167 TSNO $
PADE 181953Z AUTO 26009KT 10SM OVC015 M15/M17 A3007 RMK AO2 SLP184 T11501172 TSNO $
PADE 181853Z AUTO 23005KT 10SM BKN021 M17/M18 A3006 RMK AO2 SLP180 T11671183 TSNO $
PADE 181846Z AUTO 23005KT 10SM BKN021 M17/M18 A3006 RMK AO2 T11671183 TSNO $
PADE 181753Z AUTO 25013KT 10SM SCT013 M16/M17 A3004 RMK AO2 SLP172 60000 T11561172 11083 21156 50013 TSNO $
PADE 181749Z AUTO 26013KT 10SM BKN013 M15/M17 A3004 RMK AO2 TSNO $
PADE 181741Z AUTO 25012KT 10SM SCT011 M15/M17 A3004 RMK AO2 T11501167 TSNO $
PADE 181721Z AUTO 25016KT 8SM OVC011 M14/M16 A3002 RMK AO2 T11441161 TSNO $
PADE 181653Z AUTO 26018KT 10SM OVC009 M14/ A3002 RMK AO2 SLP165 T1139 TSNO $
PADE 181553Z AUTO 26019KT 10SM OVC009 M14/ A3000 RMK AO2 SLP160 T1139 TSNO $
PADE 181519Z AUTO 25015KT 10SM OVC010 M14/ A3000 RMK AO2 T1144 TSNO $
PADE 181503Z AUTO 25013KT 10SM BKN009 OVC039 M14/ A3000 RMK AO2 T1139 TSNO $
PADE 181453Z AUTO 24014KT 10SM SCT008 OVC038 M14/ A2999 RMK AO2 SNE25 SLP157 P0000 60000 T1139 51016 TSNO $
PADE 181449Z AUTO 25015KT 10SM SCT008 OVC038 M14/ A2999 RMK AO2 SNE25 P0000 TSNO $
PADE 181417Z AUTO 25019KT 9SM -SN SCT027 OVC032 M12/ A2998 RMK AO2 P0000 T1122 TSNO $
PADE 181253Z AUTO 25018KT 10SM UP OVC018 M10/ A2995 RMK AO2 SLP141 P0000 T1100 TSNO $
PADE 181213Z AUTO 25019KT 5SM UP FEW008 OVC015 M09/ A2993 RMK AO2 P0000 T1089 TSNO $
PADE 181209Z AUTO 25018KT 4SM UP OVC013 M09/ A2993 RMK AO2 P0000 T1089 TSNO $
PADE 181200Z AUTO 25017KT 2 1/2SM UP SCT008 OVC011 M08/ A2993 RMK AO2 P0000 T1083 TSNO $
PADE 181153Z AUTO 25016KT 3SM UP OVC010 M08/ A2993 RMK AO2 SLP134 P0000 60000 I6002 T1083 11056 21100 53022 TSNO $
PADE 181131Z AUTO 26017KT 3SM UP OVC010 M08/ A2992 RMK AO2 P0000 T1078 TSNO $
PADE 181053Z AUTO 27016KT 2 1/2SM UP SCT006 OVC011 M07/ A2990 RMK AO2 UPB17FZRAE17 SLP126 P0000 I1001 T1072 TSNO $